sensor_id;sensor_type;location;lat;lon;timestamp;pressure;altitude;pressure_sealevel;temperature;humidity
47522;BME280;32291;52.010;4.446;2023-08-07T00:01:02;78086.28;;;-144.67;100.00
47522;BME280;32291;52.010;4.446;2023-08-07T00:02:09;78086.28;;;-144.67;100.00
47522;BME280;32291;52.010;4.446;2023-08-07T00:03:12;78092.72;;;-144.67;100.00
47522;BME280;32291;52.010;4.446;2023-08-07T00:04:24;78092.72;;;-144.67;100.00
47522;BME280;32291;52.010;4.446;2023-08-07T00:05:31;78101.28;;;-144.67;100.00
47522;BME280;32291;52.010;4.446;2023-08-07T00:06:38;78101.28;;;-144.67;100.00
47522;BME280;32291;52.010;4.446;2023-08-07T00:07:45;78101.28;;;-144.67;100.00
47522;BME280;32291;52.010;4.446;2023-08-07T00:08:50;78116.25;;;-144.67;100.00
47522;BME280;32291;52.010;4.446;2023-08-07T00:09:53;78120.53;;;-144.67;100.00
47522;BME280;32291;52.010;4.446;2023-08-07T00:11:09;78144.09;;;-144.67;100.00
47522;BME280;32291;52.010;4.446;2023-08-07T00:12:12;78133.38;;;-144.67;100.00
47522;BME280;32291;52.010;4.446;2023-08-07T00:13:14;78139.81;;;-144.67;100.00
47522;BME280;32291;52.010;4.446;2023-08-07T00:14:19;78156.94;;;-144.67;100.00
47522;BME280;32291;52.010;4.446;2023-08-07T00:15:26;78163.34;;;-144.67;100.00
47522;BME280;32291;52.010;4.446;2023-08-07T00:16:33;78171.91;;;-144.67;100.00
47522;BME280;32291;52.010;4.446;2023-08-07T00:17:39;78178.34;;;-144.67;100.00
47522;BME280;32291;52.010;4.446;2023-08-07T00:18:42;78180.47;;;-144.67;100.00
47522;BME280;32291;52.010;4.446;2023-08-07T00:19:44;78193.31;;;-144.67;100.00
47522;BME280;32291;52.010;4.446;2023-08-07T00:20:51;78184.75;;;-144.67;100.00
47522;BME280;32291;52.010;4.446;2023-08-07T00:21:54;78184.75;;;-144.67;100.00
47522;BME280;32291;52.010;4.446;2023-08-07T00:23:01;78195.47;;;-144.67;100.00
47522;BME280;32291;52.010;4.446;2023-08-07T00:24:03;78206.19;;;-144.67;100.00
47522;BME280;32291;52.010;4.446;2023-08-07T00:25:10;78195.47;;;-144.67;100.00
47522;BME280;32291;52.010;4.446;2023-08-07T00:26:18;78197.59;;;-144.67;100.00
47522;BME280;32291;52.010;4.446;2023-08-07T00:27:20;78193.31;;;-144.67;100.00
47522;BME280;32291;52.010;4.446;2023-08-07T00:28:27;78197.59;;;-144.67;100.00
47522;BME280;32291;52.010;4.446;2023-08-07T00:29:34;78195.47;;;-144.67;100.00
47522;BME280;32291;52.010;4.446;2023-08-07T00:30:41;78189.03;;;-144.67;100.00
47522;BME280;32291;52.010;4.446;2023-08-07T00:31:48;78191.19;;;-144.67;100.00
47522;BME280;32291;52.010;4.446;2023-08-07T00:32:55;78184.75;;;-144.67;100.00
47522;BME280;32291;52.010;4.446;2023-08-07T00:34:02;78180.47;;;-144.67;100.00
47522;BME280;32291;52.010;4.446;2023-08-07T00:35:10;78180.47;;;-144.67;100.00
47522;BME280;32291;52.010;4.446;2023-08-07T00:36:17;78180.47;;;-144.67;100.00
47522;BME280;32291;52.010;4.446;2023-08-07T00:37:24;78178.34;;;-144.67;100.00
47522;BME280;32291;52.010;4.446;2023-08-07T00:38:31;78180.47;;;-144.67;100.00
47522;BME280;32291;52.010;4.446;2023-08-07T00:39:37;78180.47;;;-144.67;100.00
47522;BME280;32291;52.010;4.446;2023-08-07T00:40:44;78184.75;;;-144.67;100.00
47522;BME280;32291;52.010;4.446;2023-08-07T00:41:51;78176.19;;;-144.67;100.00
47522;BME280;32291;52.010;4.446;2023-08-07T00:42:58;78171.91;;;-144.67;100.00
47522;BME280;32291;52.010;4.446;2023-08-07T00:44:05;78171.91;;;-144.67;100.00
47522;BME280;32291;52.010;4.446;2023-08-07T00:45:12;78174.06;;;-144.67;100.00
47522;BME280;32291;52.010;4.446;2023-08-07T00:46:14;78169.78;;;-144.67;100.00
47522;BME280;32291;52.010;4.446;2023-08-07T00:47:21;78163.34;;;-144.67;100.00
47522;BME280;32291;52.010;4.446;2023-08-07T00:48:24;78163.34;;;-144.67;100.00
47522;BME280;32291;52.010;4.446;2023-08-07T00:49:26;78159.06;;;-144.67;100.00
47522;BME280;32291;52.010;4.446;2023-08-07T00:50:29;78154.78;;;-144.67;100.00
47522;BME280;32291;52.010;4.446;2023-08-07T00:51:37;78163.34;;;-144.67;100.00
47522;BME280;32291;52.010;4.446;2023-08-07T00:52:45;78163.34;;;-144.67;100.00
47522;BME280;32291;52.010;4.446;2023-08-07T00:53:53;78167.63;;;-144.67;100.00
47522;BME280;32291;52.010;4.446;2023-08-07T00:54:59;78163.34;;;-144.67;100.00
47522;BME280;32291;52.010;4.446;2023-08-07T00:56:07;78152.66;;;-144.67;100.00
47522;BME280;32291;52.010;4.446;2023-08-07T00:57:14;78141.94;;;-144.67;100.00
47522;BME280;32291;52.010;4.446;2023-08-07T00:58:23;78146.22;;;-144.67;100.00
47522;BME280;32291;52.010;4.446;2023-08-07T00:59:25;78139.81;;;-144.67;100.00
47522;BME280;32291;52.010;4.446;2023-08-07T01:00:29;78159.06;;;-144.67;100.00
47522;BME280;32291;52.010;4.446;2023-08-07T01:01:32;78150.50;;;-144.67;100.00
47522;BME280;32291;52.010;4.446;2023-08-07T01:02:39;78135.53;;;-144.67;100.00
47522;BME280;32291;52.010;4.446;2023-08-07T01:03:42;78148.38;;;-144.67;100.00
47522;BME280;32291;52.010;4.446;2023-08-07T01:04:50;78141.94;;;-144.67;100.00
47522;BME280;32291;52.010;4.446;2023-08-07T01:05:52;78131.25;;;-144.67;100.00
47522;BME280;32291;52.010;4.446;2023-08-07T01:06:54;78137.66;;;-144.67;100.00
47522;BME280;32291;52.010;4.446;2023-08-07T01:08:02;78124.81;;;-144.67;100.00
47522;BME280;32291;52.010;4.446;2023-08-07T01:09:09;78124.81;;;-144.67;100.00
47522;BME280;32291;52.010;4.446;2023-08-07T01:10:11;78126.97;;;-144.67;100.00
47522;BME280;32291;52.010;4.446;2023-08-07T01:11:49;78120.53;;;-144.67;100.00
47522;BME280;32291;52.010;4.446;2023-08-07T01:13:08;78122.69;;;-144.67;100.00
47522;BME280;32291;52.010;4.446;2023-08-07T01:15:57;78116.25;;;-144.67;100.00
47522;BME280;32291;52.010;4.446;2023-08-07T01:17:14;78114.13;;;-144.67;100.00
47522;BME280;32291;52.010;4.446;2023-08-07T01:18:23;78111.97;;;-144.67;100.00
47522;BME280;32291;52.010;4.446;2023-08-07T01:19:31;78116.25;;;-144.67;100.00
47522;BME280;32291;52.010;4.446;2023-08-07T01:20:34;78107.69;;;-144.67;100.00
47522;BME280;32291;52.010;4.446;2023-08-07T01:21:48;78120.53;;;-144.67;100.00
47522;BME280;32291;52.010;4.446;2023-08-07T01:22:55;78111.97;;;-144.67;100.00
47522;BME280;32291;52.010;4.446;2023-08-07T01:24:02;78109.84;;;-144.67;100.00
47522;BME280;32291;52.010;4.446;2023-08-07T01:25:05;78107.69;;;-144.67;100.00
47522;BME280;32291;52.010;4.446;2023-08-07T01:26:12;78097.00;;;-144.67;100.00
47522;BME280;32291;52.010;4.446;2023-08-07T01:28:33;78079.88;;;-144.67;100.00
47522;BME280;32291;52.010;4.446;2023-08-07T01:30:30;78086.28;;;-144.67;100.00
47522;BME280;32291;52.010;4.446;2023-08-07T01:31:38;78090.56;;;-144.67;100.00
47522;BME280;32291;52.010;4.446;2023-08-07T01:33:10;78090.56;;;-144.67;100.00
47522;BME280;32291;52.010;4.446;2023-08-07T01:34:17;78090.56;;;-144.67;100.00
47522;BME280;32291;52.010;4.446;2023-08-07T01:35:34;78075.59;;;-144.67;100.00
47522;BME280;32291;52.010;4.446;2023-08-07T01:36:43;78075.59;;;-144.67;100.00
47522;BME280;32291;52.010;4.446;2023-08-07T01:37:55;78069.16;;;-144.67;100.00
47522;BME280;32291;52.010;4.446;2023-08-07T01:38:59;78064.88;;;-144.67;100.00
47522;BME280;32291;52.010;4.446;2023-08-07T01:40:05;78069.16;;;-144.67;100.00
47522;BME280;32291;52.010;4.446;2023-08-07T01:41:07;78071.31;;;-144.67;100.00
47522;BME280;32291;52.010;4.446;2023-08-07T01:42:11;78077.72;;;-144.67;100.00
47522;BME280;32291;52.010;4.446;2023-08-07T01:43:18;78064.88;;;-144.67;100.00
47522;BME280;32291;52.010;4.446;2023-08-07T01:44:21;78064.88;;;-144.67;100.00
47522;BME280;32291;52.010;4.446;2023-08-07T01:45:28;78077.72;;;-144.67;100.00
47522;BME280;32291;52.010;4.446;2023-08-07T01:46:31;78058.44;;;-144.67;100.00
47522;BME280;32291;52.010;4.446;2023-08-07T01:47:34;78073.44;;;-144.67;100.00
47522;BME280;32291;52.010;4.446;2023-08-07T01:48:41;78067.03;;;-144.67;100.00
47522;BME280;32291;52.010;4.446;2023-08-07T01:49:43;78073.44;;;-144.67;100.00
47522;BME280;32291;52.010;4.446;2023-08-07T01:50:50;78067.03;;;-144.67;100.00
47522;BME280;32291;52.010;4.446;2023-08-07T01:51:57;78067.03;;;-144.67;100.00
47522;BME280;32291;52.010;4.446;2023-08-07T01:53:05;78064.88;;;-144.67;100.00
47522;BME280;32291;52.010;4.446;2023-08-07T01:54:12;78069.16;;;-144.67;100.00
47522;BME280;32291;52.010;4.446;2023-08-07T01:55:21;78064.88;;;-144.67;100.00
47522;BME280;32291;52.010;4.446;2023-08-07T01:56:23;78056.31;;;-144.67;100.00
47522;BME280;32291;52.010;4.446;2023-08-07T01:57:30;78054.16;;;-144.67;100.00
47522;BME280;32291;52.010;4.446;2023-08-07T01:58:38;78054.16;;;-144.67;100.00
47522;BME280;32291;52.010;4.446;2023-08-07T01:59:44;78069.16;;;-144.67;100.00
47522;BME280;32291;52.010;4.446;2023-08-07T02:00:51;78064.88;;;-144.67;100.00
47522;BME280;32291;52.010;4.446;2023-08-07T02:01:53;78069.16;;;-144.67;100.00
47522;BME280;32291;52.010;4.446;2023-08-07T02:03:00;78069.16;;;-144.67;100.00
47522;BME280;32291;52.010;4.446;2023-08-07T02:04:02;78069.16;;;-144.67;100.00
47522;BME280;32291;52.010;4.446;2023-08-07T02:05:09;78075.59;;;-144.67;100.00
47522;BME280;32291;52.010;4.446;2023-08-07T02:06:13;78058.44;;;-144.67;100.00
47522;BME280;32291;52.010;4.446;2023-08-07T02:07:20;78069.16;;;-144.67;100.00
47522;BME280;32291;52.010;4.446;2023-08-07T02:08:27;78077.72;;;-144.67;100.00
47522;BME280;32291;52.010;4.446;2023-08-07T02:09:34;78067.03;;;-144.67;100.00
47522;BME280;32291;52.010;4.446;2023-08-07T02:10:41;78056.31;;;-144.67;100.00
47522;BME280;32291;52.010;4.446;2023-08-07T02:11:47;78047.75;;;-144.67;100.00
47522;BME280;32291;52.010;4.446;2023-08-07T02:12:57;78049.88;;;-144.67;100.00
47522;BME280;32291;52.010;4.446;2023-08-07T02:14:04;78056.31;;;-144.67;100.00
47522;BME280;32291;52.010;4.446;2023-08-07T02:15:11;78062.72;;;-144.67;100.00
47522;BME280;32291;52.010;4.446;2023-08-07T02:16:18;78058.44;;;-144.67;100.00
47522;BME280;32291;52.010;4.446;2023-08-07T02:17:21;78069.16;;;-144.67;100.00
47522;BME280;32291;52.010;4.446;2023-08-07T02:18:31;78064.88;;;-144.67;100.00
47522;BME280;32291;52.010;4.446;2023-08-07T02:19:38;78054.16;;;-144.67;100.00
47522;BME280;32291;52.010;4.446;2023-08-07T02:20:45;78047.75;;;-144.67;100.00
47522;BME280;32291;52.010;4.446;2023-08-07T02:21:50;78047.75;;;-144.67;100.00
47522;BME280;32291;52.010;4.446;2023-08-07T02:22:57;78047.75;;;-144.67;100.00
47522;BME280;32291;52.010;4.446;2023-08-07T02:24:04;78054.16;;;-144.67;100.00
47522;BME280;32291;52.010;4.446;2023-08-07T02:25:11;78052.03;;;-144.67;100.00
47522;BME280;32291;52.010;4.446;2023-08-07T02:26:18;78052.03;;;-144.67;100.00
47522;BME280;32291;52.010;4.446;2023-08-07T02:27:25;78052.03;;;-144.67;100.00
47522;BME280;32291;52.010;4.446;2023-08-07T02:28:32;78043.47;;;-144.67;100.00
47522;BME280;32291;52.010;4.446;2023-08-07T02:29:39;78039.19;;;-144.67;100.00
47522;BME280;32291;52.010;4.446;2023-08-07T02:30:49;78049.88;;;-144.67;100.00
47522;BME280;32291;52.010;4.446;2023-08-07T02:31:57;78043.47;;;-144.67;100.00
47522;BME280;32291;52.010;4.446;2023-08-07T02:33:05;78032.75;;;-144.67;100.00
47522;BME280;32291;52.010;4.446;2023-08-07T02:34:12;78034.91;;;-144.67;100.00
47522;BME280;32291;52.010;4.446;2023-08-07T02:35:19;78043.47;;;-144.67;100.00
47522;BME280;32291;52.010;4.446;2023-08-07T02:36:25;78039.19;;;-144.67;100.00
47522;BME280;32291;52.010;4.446;2023-08-07T02:37:32;78026.34;;;-144.67;100.00
47522;BME280;32291;52.010;4.446;2023-08-07T02:38:34;78030.63;;;-144.67;100.00
47522;BME280;32291;52.010;4.446;2023-08-07T02:39:42;78030.63;;;-144.67;100.00
47522;BME280;32291;52.010;4.446;2023-08-07T02:40:49;78030.63;;;-144.67;100.00
47522;BME280;32291;52.010;4.446;2023-08-07T02:41:56;78030.63;;;-144.67;100.00
47522;BME280;32291;52.010;4.446;2023-08-07T02:43:03;78039.19;;;-144.67;100.00
47522;BME280;32291;52.010;4.446;2023-08-07T02:44:09;78043.47;;;-144.67;100.00
47522;BME280;32291;52.010;4.446;2023-08-07T02:45:22;78041.31;;;-144.67;100.00
47522;BME280;32291;52.010;4.446;2023-08-07T02:46:24;78047.75;;;-144.67;100.00
47522;BME280;32291;52.010;4.446;2023-08-07T02:47:31;78064.88;;;-144.67;100.00
47522;BME280;32291;52.010;4.446;2023-08-07T02:48:38;78062.72;;;-144.67;100.00
47522;BME280;32291;52.010;4.446;2023-08-07T02:49:46;78064.88;;;-144.67;100.00
47522;BME280;32291;52.010;4.446;2023-08-07T02:50:55;78075.59;;;-144.67;100.00
47522;BME280;32291;52.010;4.446;2023-08-07T02:52:02;78088.44;;;-144.67;100.00
47522;BME280;32291;52.010;4.446;2023-08-07T02:53:04;78082.00;;;-144.67;100.00
47522;BME280;32291;52.010;4.446;2023-08-07T02:54:11;78094.84;;;-144.67;100.00
47522;BME280;32291;52.010;4.446;2023-08-07T02:55:18;78088.44;;;-144.67;100.00
47522;BME280;32291;52.010;4.446;2023-08-07T02:56:25;78101.28;;;-144.67;100.00
47522;BME280;32291;52.010;4.446;2023-08-07T02:57:28;78118.41;;;-144.67;100.00
47522;BME280;32291;52.010;4.446;2023-08-07T02:58:35;78129.09;;;-144.67;100.00
47522;BME280;32291;52.010;4.446;2023-08-07T02:59:42;78126.97;;;-144.67;100.00
47522;BME280;32291;52.010;4.446;2023-08-07T03:00:49;78137.66;;;-144.67;100.00
47522;BME280;32291;52.010;4.446;2023-08-07T03:01:51;78137.66;;;-144.67;100.00
47522;BME280;32291;52.010;4.446;2023-08-07T03:02:53;78141.94;;;-144.67;100.00
47522;BME280;32291;52.010;4.446;2023-08-07T03:03:59;78135.53;;;-144.67;100.00
47522;BME280;32291;52.010;4.446;2023-08-07T03:05:07;78137.66;;;-144.67;100.00
47522;BME280;32291;52.010;4.446;2023-08-07T03:06:14;78129.09;;;-144.67;100.00
47522;BME280;32291;52.010;4.446;2023-08-07T03:07:16;78137.66;;;-144.67;100.00
47522;BME280;32291;52.010;4.446;2023-08-07T03:08:26;78135.53;;;-144.67;100.00
47522;BME280;32291;52.010;4.446;2023-08-07T03:09:33;78144.09;;;-144.67;100.00
47522;BME280;32291;52.010;4.446;2023-08-07T03:10:39;78141.94;;;-144.67;100.00
47522;BME280;32291;52.010;4.446;2023-08-07T03:11:47;78135.53;;;-144.67;100.00
47522;BME280;32291;52.010;4.446;2023-08-07T03:12:54;78137.66;;;-144.67;100.00
47522;BME280;32291;52.010;4.446;2023-08-07T03:14:01;78137.66;;;-144.67;100.00
47522;BME280;32291;52.010;4.446;2023-08-07T03:15:08;78133.38;;;-144.67;100.00
47522;BME280;32291;52.010;4.446;2023-08-07T03:16:15;78137.66;;;-144.67;100.00
47522;BME280;32291;52.010;4.446;2023-08-07T03:17:24;78137.66;;;-144.67;100.00
47522;BME280;32291;52.010;4.446;2023-08-07T03:18:32;78137.66;;;-144.67;100.00
47522;BME280;32291;52.010;4.446;2023-08-07T03:19:35;78133.38;;;-144.67;100.00
47522;BME280;32291;52.010;4.446;2023-08-07T03:20:43;78137.66;;;-144.67;100.00
47522;BME280;32291;52.010;4.446;2023-08-07T03:21:50;78133.38;;;-144.67;100.00
47522;BME280;32291;52.010;4.446;2023-08-07T03:22:57;78141.94;;;-144.67;100.00
47522;BME280;32291;52.010;4.446;2023-08-07T03:24:04;78141.94;;;-144.67;100.00
47522;BME280;32291;52.010;4.446;2023-08-07T03:25:10;78139.81;;;-144.67;100.00
47522;BME280;32291;52.010;4.446;2023-08-07T03:26:17;78133.38;;;-144.67;100.00
47522;BME280;32291;52.010;4.446;2023-08-07T03:27:24;78146.22;;;-144.67;100.00
47522;BME280;32291;52.010;4.446;2023-08-07T03:28:32;78141.94;;;-144.67;100.00
47522;BME280;32291;52.010;4.446;2023-08-07T03:29:34;78133.38;;;-144.67;100.00
47522;BME280;32291;52.010;4.446;2023-08-07T03:30:36;78141.94;;;-144.67;100.00
47522;BME280;32291;52.010;4.446;2023-08-07T03:31:44;78144.09;;;-144.67;100.00
47522;BME280;32291;52.010;4.446;2023-08-07T03:32:51;78146.22;;;-144.67;100.00
47522;BME280;32291;52.010;4.446;2023-08-07T03:33:54;78154.78;;;-144.67;100.00
47522;BME280;32291;52.010;4.446;2023-08-07T03:35:01;78154.78;;;-144.67;100.00
47522;BME280;32291;52.010;4.446;2023-08-07T03:36:08;78146.22;;;-144.67;100.00
47522;BME280;32291;52.010;4.446;2023-08-07T03:37:15;78144.09;;;-144.67;100.00
47522;BME280;32291;52.010;4.446;2023-08-07T03:38:23;78141.94;;;-144.67;100.00
47522;BME280;32291;52.010;4.446;2023-08-07T03:39:30;78141.94;;;-144.67;100.00
47522;BME280;32291;52.010;4.446;2023-08-07T03:40:37;78150.50;;;-144.67;100.00
47522;BME280;32291;52.010;4.446;2023-08-07T03:41:42;78144.09;;;-144.67;100.00
47522;BME280;32291;52.010;4.446;2023-08-07T03:42:49;78137.66;;;-144.67;100.00
47522;BME280;32291;52.010;4.446;2023-08-07T03:43:56;78141.94;;;-144.67;100.00
47522;BME280;32291;52.010;4.446;2023-08-07T03:45:05;78141.94;;;-144.67;100.00
47522;BME280;32291;52.010;4.446;2023-08-07T03:46:12;78146.22;;;-144.67;100.00
47522;BME280;32291;52.010;4.446;2023-08-07T03:47:20;78146.22;;;-144.67;100.00
47522;BME280;32291;52.010;4.446;2023-08-07T03:48:26;78137.66;;;-144.67;100.00
47522;BME280;32291;52.010;4.446;2023-08-07T03:49:33;78131.25;;;-144.67;100.00
47522;BME280;32291;52.010;4.446;2023-08-07T03:50:40;78137.66;;;-144.67;100.00
47522;BME280;32291;52.010;4.446;2023-08-07T03:51:49;78129.09;;;-144.67;100.00
47522;BME280;32291;52.010;4.446;2023-08-07T03:52:57;78126.97;;;-144.67;100.00
47522;BME280;32291;52.010;4.446;2023-08-07T03:53:59;78124.81;;;-144.67;100.00
47522;BME280;32291;52.010;4.446;2023-08-07T03:55:01;78131.25;;;-144.67;100.00
47522;BME280;32291;52.010;4.446;2023-08-07T03:56:08;78131.25;;;-144.67;100.00
47522;BME280;32291;52.010;4.446;2023-08-07T03:57:10;78122.69;;;-144.67;100.00
47522;BME280;32291;52.010;4.446;2023-08-07T03:58:20;78124.81;;;-144.67;100.00
47522;BME280;32291;52.010;4.446;2023-08-07T03:59:27;78122.69;;;-144.67;100.00
47522;BME280;32291;52.010;4.446;2023-08-07T04:00:34;78116.25;;;-144.67;100.00
47522;BME280;32291;52.010;4.446;2023-08-07T04:01:40;78116.25;;;-144.67;100.00
47522;BME280;32291;52.010;4.446;2023-08-07T04:02:42;78105.56;;;-144.67;100.00
47522;BME280;32291;52.010;4.446;2023-08-07T04:03:49;78099.13;;;-144.67;100.00
47522;BME280;32291;52.010;4.446;2023-08-07T04:04:56;78094.84;;;-144.67;100.00
47522;BME280;32291;52.010;4.446;2023-08-07T04:06:03;78092.72;;;-144.67;100.00
47522;BME280;32291;52.010;4.446;2023-08-07T04:07:10;78094.84;;;-144.67;100.00
47522;BME280;32291;52.010;4.446;2023-08-07T04:08:17;78090.56;;;-144.67;100.00
47522;BME280;32291;52.010;4.446;2023-08-07T04:09:24;78086.28;;;-144.67;100.00
47522;BME280;32291;52.010;4.446;2023-08-07T04:10:31;78088.44;;;-144.67;100.00
47522;BME280;32291;52.010;4.446;2023-08-07T04:11:40;78079.88;;;-144.67;100.00
47522;BME280;32291;52.010;4.446;2023-08-07T04:12:42;78075.59;;;-144.67;100.00
47522;BME280;32291;52.010;4.446;2023-08-07T04:13:49;78075.59;;;-144.67;100.00
47522;BME280;32291;52.010;4.446;2023-08-07T04:14:56;78075.59;;;-144.67;100.00
47522;BME280;32291;52.010;4.446;2023-08-07T04:16:03;78075.59;;;-144.67;100.00
47522;BME280;32291;52.010;4.446;2023-08-07T04:17:11;78082.00;;;-144.67;100.00
47522;BME280;32291;52.010;4.446;2023-08-07T04:18:20;78079.88;;;-144.67;100.00
47522;BME280;32291;52.010;4.446;2023-08-07T04:19:22;78077.72;;;-144.67;100.00
47522;BME280;32291;52.010;4.446;2023-08-07T04:20:29;78077.72;;;-144.67;100.00
47522;BME280;32291;52.010;4.446;2023-08-07T04:21:36;78079.88;;;-144.67;100.00
47522;BME280;32291;52.010;4.446;2023-08-07T04:22:43;78073.44;;;-144.67;100.00
47522;BME280;32291;52.010;4.446;2023-08-07T04:23:50;78073.44;;;-144.67;100.00
47522;BME280;32291;52.010;4.446;2023-08-07T04:24:57;78082.00;;;-144.67;100.00
47522;BME280;32291;52.010;4.446;2023-08-07T04:26:04;78086.28;;;-144.67;100.00
47522;BME280;32291;52.010;4.446;2023-08-07T04:27:11;78082.00;;;-144.67;100.00
47522;BME280;32291;52.010;4.446;2023-08-07T04:28:19;78086.28;;;-144.67;100.00
47522;BME280;32291;52.010;4.446;2023-08-07T04:29:21;78086.28;;;-144.67;100.00
47522;BME280;32291;52.010;4.446;2023-08-07T04:30:28;78082.00;;;-144.67;100.00
47522;BME280;32291;52.010;4.446;2023-08-07T04:31:35;78064.88;;;-144.67;100.00
47522;BME280;32291;52.010;4.446;2023-08-07T04:32:42;78069.16;;;-144.67;100.00
47522;BME280;32291;52.010;4.446;2023-08-07T04:33:48;78060.59;;;-144.67;100.00
47522;BME280;32291;52.010;4.446;2023-08-07T04:34:55;78067.03;;;-144.67;100.00
47522;BME280;32291;52.010;4.446;2023-08-07T04:35:57;78064.88;;;-144.67;100.00
47522;BME280;32291;52.010;4.446;2023-08-07T04:36:59;78060.59;;;-144.67;100.00
47522;BME280;32291;52.010;4.446;2023-08-07T04:38:07;78069.16;;;-144.67;100.00
47522;BME280;32291;52.010;4.446;2023-08-07T04:39:14;78064.88;;;-144.67;100.00
47522;BME280;32291;52.010;4.446;2023-08-07T04:40:20;78073.44;;;-144.67;100.00
47522;BME280;32291;52.010;4.446;2023-08-07T04:41:27;78062.72;;;-144.67;100.00
47522;BME280;32291;52.010;4.446;2023-08-07T04:42:34;78064.88;;;-144.67;100.00
47522;BME280;32291;52.010;4.446;2023-08-07T04:43:41;78056.31;;;-144.67;100.00
47522;BME280;32291;52.010;4.446;2023-08-07T04:44:49;78060.59;;;-144.67;100.00
47522;BME280;32291;52.010;4.446;2023-08-07T04:45:56;78064.88;;;-144.67;100.00
47522;BME280;32291;52.010;4.446;2023-08-07T04:47:03;78056.31;;;-144.67;100.00
47522;BME280;32291;52.010;4.446;2023-08-07T04:48:11;78064.88;;;-144.67;100.00
47522;BME280;32291;52.010;4.446;2023-08-07T04:49:18;78052.03;;;-144.67;100.00
47522;BME280;32291;52.010;4.446;2023-08-07T04:50:25;78056.31;;;-144.67;100.00
47522;BME280;32291;52.010;4.446;2023-08-07T04:51:32;78064.88;;;-144.67;100.00
47522;BME280;32291;52.010;4.446;2023-08-07T04:52:35;78064.88;;;-144.67;100.00
47522;BME280;32291;52.010;4.446;2023-08-07T04:53:42;78064.88;;;-144.67;100.00
47522;BME280;32291;52.010;4.446;2023-08-07T04:54:44;78060.59;;;-144.67;100.00
47522;BME280;32291;52.010;4.446;2023-08-07T04:55:51;78067.03;;;-144.67;100.00
47522;BME280;32291;52.010;4.446;2023-08-07T04:56:58;78062.72;;;-144.67;100.00
47522;BME280;32291;52.010;4.446;2023-08-07T04:58:04;78069.16;;;-144.67;100.00
47522;BME280;32291;52.010;4.446;2023-08-07T04:59:12;78069.16;;;-144.67;100.00
47522;BME280;32291;52.010;4.446;2023-08-07T05:00:18;78069.16;;;-144.67;100.00
47522;BME280;32291;52.010;4.446;2023-08-07T05:01:25;78071.31;;;-144.67;100.00
47522;BME280;32291;52.010;4.446;2023-08-07T05:02:27;78067.03;;;-144.67;100.00
47522;BME280;32291;52.010;4.446;2023-08-07T05:03:34;78069.16;;;-144.67;100.00
47522;BME280;32291;52.010;4.446;2023-08-07T05:04:41;78069.16;;;-144.67;100.00
47522;BME280;32291;52.010;4.446;2023-08-07T05:05:43;78058.44;;;-144.67;100.00
47522;BME280;32291;52.010;4.446;2023-08-07T05:06:50;78060.59;;;-144.67;100.00
47522;BME280;32291;52.010;4.446;2023-08-07T05:07:58;78067.03;;;-144.67;100.00
47522;BME280;32291;52.010;4.446;2023-08-07T05:09:01;78069.16;;;-144.67;100.00
47522;BME280;32291;52.010;4.446;2023-08-07T05:10:09;78075.59;;;-144.67;100.00
47522;BME280;32291;52.010;4.446;2023-08-07T05:11:11;78082.00;;;-144.67;100.00
47522;BME280;32291;52.010;4.446;2023-08-07T05:12:18;78071.31;;;-144.67;100.00
47522;BME280;32291;52.010;4.446;2023-08-07T05:13:25;78073.44;;;-144.67;100.00
47522;BME280;32291;52.010;4.446;2023-08-07T05:14:32;78077.72;;;-144.67;100.00
47522;BME280;32291;52.010;4.446;2023-08-07T05:15:39;78069.16;;;-144.67;100.00
47522;BME280;32291;52.010;4.446;2023-08-07T05:16:42;78067.03;;;-144.67;100.00
47522;BME280;32291;52.010;4.446;2023-08-07T05:17:51;78064.88;;;-144.67;100.00
47522;BME280;32291;52.010;4.446;2023-08-07T05:18:58;78073.44;;;-144.67;100.00
47522;BME280;32291;52.010;4.446;2023-08-07T05:20:06;78064.88;;;-144.67;100.00
47522;BME280;32291;52.010;4.446;2023-08-07T05:21:13;78064.88;;;-144.67;100.00
47522;BME280;32291;52.010;4.446;2023-08-07T05:22:15;78069.16;;;-144.67;100.00
47522;BME280;32291;52.010;4.446;2023-08-07T05:23:23;78064.88;;;-144.67;100.00
47522;BME280;32291;52.010;4.446;2023-08-07T05:24:30;78067.03;;;-144.67;100.00
47522;BME280;32291;52.010;4.446;2023-08-07T05:25:46;78062.72;;;-144.67;100.00
47522;BME280;32291;52.010;4.446;2023-08-07T05:26:53;78058.44;;;-144.67;100.00
47522;BME280;32291;52.010;4.446;2023-08-07T05:27:56;78058.44;;;-144.67;100.00
47522;BME280;32291;52.010;4.446;2023-08-07T05:28:58;78056.31;;;-144.67;100.00
47522;BME280;32291;52.010;4.446;2023-08-07T05:30:06;78052.03;;;-144.67;100.00
47522;BME280;32291;52.010;4.446;2023-08-07T05:31:13;78052.03;;;-144.67;100.00
47522;BME280;32291;52.010;4.446;2023-08-07T05:32:20;78043.47;;;-144.67;100.00
47522;BME280;32291;52.010;4.446;2023-08-07T05:33:27;78054.16;;;-144.67;100.00
47522;BME280;32291;52.010;4.446;2023-08-07T05:34:33;78052.03;;;-144.67;100.00
47522;BME280;32291;52.010;4.446;2023-08-07T05:35:40;78030.63;;;-144.67;100.00
47522;BME280;32291;52.010;4.446;2023-08-07T05:36:47;78043.47;;;-144.67;100.00
47522;BME280;32291;52.010;4.446;2023-08-07T05:37:54;78039.19;;;-144.67;100.00
47522;BME280;32291;52.010;4.446;2023-08-07T05:39:02;78043.47;;;-144.67;100.00
47522;BME280;32291;52.010;4.446;2023-08-07T05:40:10;78037.03;;;-144.67;100.00
47522;BME280;32291;52.010;4.446;2023-08-07T05:41:21;78030.63;;;-144.67;100.00
47522;BME280;32291;52.010;4.446;2023-08-07T05:42:28;78030.63;;;-144.67;100.00
47522;BME280;32291;52.010;4.446;2023-08-07T05:43:35;78026.34;;;-144.67;100.00